Time;durP1;ratioP1;P1;durP2;ratioP2;P2;SDS_P1;SDS_P2;PMS_P1;PMS_P2;Temp;Humidity;BMP_temperature;BMP_pressure;BME280_temperature;BME280_humidity;BME280_pressure;Samples;Min_cycle;Max_cycle;Signal;HPM_P1;HPM_P2
2021/10/09 00:02:09;;;;;;;42.85;16.55;;;;;;;19.88;63.71;100648.66;5051260;28;20115;-65
2021/10/09 00:04:35;;;;;;;42.35;16.75;;;;;;;19.74;63.33;100633.91;5038923;28;20073;-70
2021/10/09 00:07:02;;;;;;;37.33;16.63;;;;;;;19.73;63.30;100630.25;5048736;28;20080;-71
2021/10/09 00:09:29;;;;;;;36.95;15.63;;;;;;;19.79;63.27;100640.19;5043901;28;20123;-65
2021/10/09 00:11:56;;;;;;;40.97;16.35;;;;;;;19.70;63.17;100624.44;5049143;28;20045;-72
2021/10/09 00:14:23;;;;;;;44.92;18.23;;;;;;;19.83;63.55;100640.38;5049339;28;20136;-66
2021/10/09 00:16:51;;;;;;;37.85;18.52;;;;;;;19.75;63.17;100635.56;5027495;28;20132;-71
2021/10/09 00:19:18;;;;;;;43.15;18.05;;;;;;;19.74;63.54;100631.06;5039623;28;20125;-75
2021/10/09 00:21:45;;;;;;;45.05;16.00;;;;;;;19.68;63.42;100632.44;5049840;28;20559;-76
2021/10/09 00:24:16;;;;;;;38.10;16.95;;;;;;;19.71;63.36;100635.41;5051272;28;20124;-66
2021/10/09 00:26:44;;;;;;;43.42;16.40;;;;;;;19.71;63.11;100643.09;5044865;28;20564;-68
2021/10/09 00:29:10;;;;;;;43.72;16.95;;;;;;;19.69;63.08;100639.75;5033665;28;20484;-68
2021/10/09 00:31:38;;;;;;;40.88;17.73;;;;;;;19.62;63.22;100635.44;5044040;28;20069;-66
2021/10/09 00:34:05;;;;;;;39.20;17.58;;;;;;;19.53;63.30;100643.13;5040539;28;20415;-63
2021/10/09 00:36:32;;;;;;;43.70;17.10;;;;;;;19.37;63.38;100628.66;5023584;28;20052;-64
2021/10/09 00:38:59;;;;;;;33.50;15.10;;;;;;;19.32;63.53;100647.88;5038641;28;20148;-66
2021/10/09 00:41:26;;;;;;;36.25;16.55;;;;;;;19.05;63.64;100644.25;5045397;28;20088;-65
2021/10/09 00:43:53;;;;;;;35.47;16.75;;;;;;;18.86;64.08;100635.28;5017212;28;20085;-63
2021/10/09 00:46:20;;;;;;;45.63;16.80;;;;;;;18.77;63.97;100631.63;5041313;28;20123;-66
2021/10/09 00:48:47;;;;;;;45.05;16.98;;;;;;;18.70;64.17;100635.78;5051830;28;20128;-63
2021/10/09 00:51:14;;;;;;;41.65;16.95;;;;;;;18.54;64.78;100631.78;5040891;28;20120;-64
2021/10/09 00:53:44;;;;;;;42.33;15.73;;;;;;;18.12;65.37;100589.00;5045374;28;20552;-76
2021/10/09 00:56:15;;;;;;;41.00;17.20;;;;;;;18.13;66.23;100627.41;5030196;28;20073;-73
2021/10/09 00:58:44;;;;;;;35.33;16.42;;;;;;;17.92;66.10;100610.25;5047807;28;20053;-68
2021/10/09 01:01:11;;;;;;;44.60;16.67;;;;;;;17.92;66.33;100626.38;5051607;28;20124;-68
2021/10/09 01:03:39;;;;;;;51.95;18.92;;;;;;;17.89;66.36;100615.72;5049430;28;20084;-65
2021/10/09 01:06:06;;;;;;;42.75;17.00;;;;;;;17.81;67.16;100636.28;5050133;28;20523;-68
2021/10/09 01:08:33;;;;;;;51.75;18.73;;;;;;;17.81;67.06;100627.81;5048354;28;20124;-67
2021/10/09 01:10:59;;;;;;;40.38;16.45;;;;;;;17.83;67.07;100631.16;5043628;28;20045;-71
2021/10/09 01:13:26;;;;;;;35.00;18.02;;;;;;;17.74;67.49;100631.09;5043857;28;20496;-70
2021/10/09 01:15:53;;;;;;;37.45;17.48;;;;;;;17.64;67.66;100615.28;5040469;28;20049;-68
2021/10/09 01:18:20;;;;;;;42.60;17.85;;;;;;;17.70;67.10;100604.66;5043667;28;20132;-73
2021/10/09 01:20:55;;;;;;;47.15;18.83;;;;;;;17.79;66.94;100610.38;5049311;28;20124;-66
2021/10/09 01:23:23;;;;;;;39.42;16.38;;;;;;;17.82;67.00;100606.91;5049450;28;20045;-67
2021/10/09 01:25:50;;;;;;;40.95;16.05;;;;;;;17.69;67.28;100603.00;5048375;28;20123;-65
2021/10/09 01:28:17;;;;;;;41.28;18.30;;;;;;;17.75;67.16;100613.81;5049965;28;20080;-66
2021/10/09 01:30:44;;;;;;;40.88;18.30;;;;;;;17.87;66.96;100627.34;5048732;28;20211;-66
2021/10/09 01:33:11;;;;;;;43.88;18.92;;;;;;;17.80;66.73;100617.69;5047129;28;20125;-67
2021/10/09 01:35:50;;;;;;;46.45;19.60;;;;;;;17.53;66.87;100592.13;5047245;28;20084;-68
2021/10/09 01:38:19;;;;;;;55.55;19.52;;;;;;;17.89;67.07;100635.50;5032638;28;20116;-67
2021/10/09 01:40:46;;;;;;;49.50;19.73;;;;;;;17.80;66.96;100615.69;5033826;28;20179;-67
2021/10/09 01:43:15;;;;;;;43.72;18.40;;;;;;;17.69;66.97;100606.66;5044657;28;20053;-68
2021/10/09 01:45:43;;;;;;;44.08;19.75;;;;;;;17.71;67.08;100612.00;5044103;28;20068;-68
2021/10/09 01:48:11;;;;;;;53.25;18.42;;;;;;;17.69;67.01;100619.94;5049839;28;20041;-67
2021/10/09 01:50:39;;;;;;;45.38;18.42;;;;;;;17.60;67.02;100610.59;5052289;28;20083;-67
2021/10/09 01:53:07;;;;;;;43.20;18.10;;;;;;;17.67;67.30;100625.06;5041353;28;20119;-67
2021/10/09 01:55:40;;;;;;;48.03;21.48;;;;;;;17.69;67.05;100625.59;5044409;28;20072;-68
2021/10/09 01:58:07;;;;;;;46.75;19.65;;;;;;;17.64;67.42;100615.28;5041567;28;20475;-67
2021/10/09 02:00:35;;;;;;;41.53;18.55;;;;;;;17.66;67.18;100614.94;5047886;28;20084;-67
2021/10/09 02:03:04;;;;;;;43.60;19.00;;;;;;;17.53;67.74;100616.72;5051214;28;20048;-69
2021/10/09 02:05:33;;;;;;;48.55;19.27;;;;;;;17.42;67.99;100621.81;5041754;28;20505;-70
2021/10/09 02:08:01;;;;;;;41.05;16.80;;;;;;;17.28;68.91;100609.81;5048814;28;20046;-71
2021/10/09 02:10:29;;;;;;;42.15;18.00;;;;;;;17.21;68.67;100621.56;5039046;28;20491;-70
2021/10/09 02:12:58;;;;;;;54.05;19.27;;;;;;;17.13;68.52;100596.09;5045873;28;20085;-68
2021/10/09 02:26:28;;;;;;;49.90;21.77;;;;;;;17.11;68.92;100626.66;5045040;28;20537;-71
2021/10/09 02:28:55;;;;;;;52.05;19.27;;;;;;;17.00;69.53;100620.44;5046342;28;20114;-71
2021/10/09 02:31:22;;;;;;;48.60;18.83;;;;;;;17.00;69.85;100623.25;5050479;28;20340;-65
2021/10/09 02:33:49;;;;;;;48.53;17.35;;;;;;;16.77;70.53;100613.97;5045398;28;20504;-72
2021/10/09 02:36:16;;;;;;;36.53;16.15;;;;;;;16.74;70.41;100618.25;5048343;28;20076;-75
2021/10/09 02:38:43;;;;;;;60.40;19.52;;;;;;;16.71;70.86;100624.50;5048238;28;20061;-76
2021/10/09 02:41:10;;;;;;;50.30;18.77;;;;;;;16.66;70.10;100604.91;5036504;28;20103;-75
2021/10/09 02:43:36;;;;;;;53.42;20.63;;;;;;;16.91;69.69;100636.47;5041269;28;20124;-75
2021/10/09 02:46:04;;;;;;;48.38;18.58;;;;;;;16.92;69.61;100627.69;5045872;28;20083;-66
2021/10/09 02:48:31;;;;;;;77.55;21.13;;;;;;;16.96;69.72;100633.53;5044206;28;20405;-66
2021/10/09 02:50:58;;;;;;;80.93;20.63;;;;;;;16.93;69.83;100620.06;5043594;28;20128;-66
2021/10/09 02:53:25;;;;;;;65.13;21.52;;;;;;;16.90;69.72;100638.47;5044335;28;20103;-65
2021/10/09 02:55:51;;;;;;;54.33;20.23;;;;;;;16.85;69.62;100623.66;5042893;28;20084;-65
2021/10/09 02:58:18;;;;;;;35.33;13.73;;;;;;;16.72;70.40;100617.75;5045549;28;20049;-64
2021/10/09 03:00:45;;;;;;;45.20;16.15;;;;;;;16.66;70.69;100619.00;5049271;28;20080;-64
2021/10/09 03:03:12;;;;;;;34.90;13.43;;;;;;;16.59;70.76;100627.09;5044135;28;20053;-64
2021/10/09 03:05:39;;;;;;;48.97;18.88;;;;;;;16.54;71.06;100624.38;5050118;28;20897;-64
2021/10/09 03:08:06;;;;;;;52.72;17.52;;;;;;;16.58;70.92;100625.41;5046291;28;20084;-64
2021/10/09 03:10:33;;;;;;;54.90;18.75;;;;;;;16.53;71.41;100625.53;5045337;28;20124;-64
2021/10/09 03:13:00;;;;;;;52.67;18.92;;;;;;;16.43;71.85;100623.78;5044324;28;20140;-64
2021/10/09 03:15:27;;;;;;;66.83;17.57;;;;;;;16.29;72.26;100604.09;5045663;28;20096;-64
2021/10/09 03:17:53;;;;;;;43.10;11.48;;;;;;;16.26;72.85;100618.81;5016893;28;20363;-64
2021/10/09 03:20:20;;;;;;;51.90;10.65;;;;;;;16.12;74.01;100618.03;5050500;28;20041;-72
2021/10/09 03:22:47;;;;;;;40.60;10.57;;;;;;;15.90;74.69;100601.06;5044014;28;20120;-69
2021/10/09 03:25:16;;;;;;;32.85;11.80;;;;;;;15.83;75.31;100615.59;5034964;28;20137;-76
2021/10/09 03:27:43;;;;;;;71.50;13.70;;;;;;;15.72;76.26;100616.94;5049222;28;20041;-72
2021/10/09 03:30:10;;;;;;;86.77;18.27;;;;;;;15.80;75.75;100617.03;5038997;28;20386;-64
2021/10/09 03:32:38;;;;;;;68.43;16.47;;;;;;;15.85;75.43;100608.47;5053379;28;20124;-64
2021/10/09 03:35:07;;;;;;;86.47;17.80;;;;;;;15.99;74.82;100607.63;5049790;28;20087;-63
2021/10/09 03:37:34;;;;;;;90.28;19.60;;;;;;;16.06;74.26;100610.84;5053045;28;20135;-70
2021/10/09 03:40:04;;;;;;;43.78;12.75;;;;;;;15.93;75.01;100615.38;5052860;28;20455;-65
2021/10/09 03:45:04;;;;;;;75.90;16.27;;;;;;;16.04;74.38;100615.97;5046725;28;20048;-66
2021/10/09 03:50:18;;;;;;;45.10;11.47;;;;;;;15.71;75.93;100607.66;5049936;28;20157;-67
2021/10/09 03:52:45;;;;;;;26.97;7.87;;;;;;;15.59;76.54;100596.06;5040862;28;20077;-67
2021/10/09 03:55:17;;;;;;;37.43;10.50;;;;;;;15.51;77.34;100603.25;5047262;28;20076;-67
2021/10/09 03:57:44;;;;;;;48.60;13.47;;;;;;;15.55;77.08;100609.91;5049897;28;20088;-67
2021/10/09 04:00:14;;;;;;;90.50;18.73;;;;;;;15.69;76.34;100593.06;5047330;28;20127;-68
2021/10/09 04:02:41;;;;;;;68.93;12.90;;;;;;;15.69;76.12;100598.72;5037622;28;20114;-68
2021/10/09 04:05:08;;;;;;;64.40;15.37;;;;;;;15.80;76.10;100602.97;5049394;28;20051;-67
2021/10/09 04:07:36;;;;;;;100.03;17.07;;;;;;;15.92;75.67;100608.06;5050621;28;20116;-63
2021/10/09 04:10:08;;;;;;;91.40;18.83;;;;;;;15.90;75.07;100590.66;5049485;28;20048;-63
2021/10/09 04:12:35;;;;;;;126.17;21.70;;;;;;;16.12;74.92;100623.66;5048311;28;20094;-63
2021/10/09 04:15:03;;;;;;;80.93;16.52;;;;;;;16.23;74.44;100611.00;5045247;28;20053;-63
2021/10/09 04:17:30;;;;;;;107.27;20.43;;;;;;;16.30;74.00;100619.84;5050178;28;20136;-63
2021/10/09 04:19:57;;;;;;;128.83;20.87;;;;;;;16.40;73.61;100617.94;5025480;28;20054;-64
2021/10/09 04:22:23;;;;;;;125.73;18.27;;;;;;;16.38;73.89;100621.09;5042971;28;20065;-62
2021/10/09 04:24:50;;;;;;;77.97;15.17;;;;;;;16.28;74.07;100622.19;5051290;28;20132;-65
2021/10/09 04:27:17;;;;;;;96.77;15.83;;;;;;;16.23;74.06;100618.63;5051550;28;20069;-67
2021/10/09 04:29:44;;;;;;;66.40;16.27;;;;;;;16.06;74.50;100608.03;5051885;28;20056;-67
2021/10/09 04:32:10;;;;;;;88.53;14.23;;;;;;;16.04;74.58;100605.53;5052472;28;20182;-63
2021/10/09 04:34:37;;;;;;;115.87;18.00;;;;;;;16.04;75.33;100613.16;5048992;28;20418;-65
2021/10/09 04:37:04;;;;;;;58.10;15.07;;;;;;;15.99;75.46;100616.91;5040114;28;20509;-63
2021/10/09 04:39:31;;;;;;;103.40;17.00;;;;;;;15.95;75.54;100606.59;5050682;28;20132;-61
2021/10/09 04:41:58;;;;;;;149.67;20.43;;;;;;;16.01;74.99;100611.78;5049653;28;20105;-64
2021/10/09 04:44:24;;;;;;;86.27;16.87;;;;;;;16.08;74.98;100614.19;5039488;28;20144;-63
2021/10/09 04:46:51;;;;;;;126.67;20.67;;;;;;;15.93;75.49;100604.09;5051572;28;20077;-61
2021/10/09 04:49:18;;;;;;;117.60;20.23;;;;;;;15.94;75.55;100614.22;5045270;28;20045;-62
2021/10/09 04:51:45;;;;;;;96.95;17.60;;;;;;;16.00;75.58;100623.38;5037726;28;20041;-60
2021/10/09 04:54:12;;;;;;;151.03;22.97;;;;;;;16.05;75.32;100624.09;5049568;28;20566;-58
2021/10/09 04:56:39;;;;;;;98.40;18.63;;;;;;;15.94;75.08;100599.31;5049794;28;20136;-60
2021/10/09 04:59:05;;;;;;;86.73;19.20;;;;;;;16.17;74.89;100631.16;5052648;28;20135;-61
2021/10/09 05:01:32;;;;;;;112.57;19.13;;;;;;;16.16;74.63;100618.22;5048799;28;20081;-60
2021/10/09 05:03:59;;;;;;;133.07;20.83;;;;;;;16.15;74.51;100625.84;5044988;28;20065;-61
2021/10/09 05:06:26;;;;;;;126.00;20.77;;;;;;;16.13;74.67;100625.31;5048673;28;20128;-61
2021/10/09 05:08:53;;;;;;;135.45;22.83;;;;;;;16.25;74.22;100636.91;5051420;28;20132;-62
2021/10/09 05:11:20;;;;;;;117.83;20.97;;;;;;;16.23;74.15;100613.00;5046998;28;20128;-63
2021/10/09 05:13:47;;;;;;;109.17;19.00;;;;;;;16.41;73.82;100630.88;5053598;28;20084;-63
2021/10/09 05:16:14;;;;;;;189.50;22.55;;;;;;;16.42;73.80;100639.03;5053755;28;20075;-66
2021/10/09 05:18:45;;;;;;;129.77;20.40;;;;;;;16.30;73.84;100619.03;5050301;28;20626;-65
2021/10/09 05:21:12;;;;;;;111.30;20.87;;;;;;;16.38;73.50;100637.19;5028697;28;20068;-65
2021/10/09 05:23:39;;;;;;;129.07;19.58;;;;;;;16.32;73.32;100628.00;5027440;28;20180;-66
2021/10/09 05:26:06;;;;;;;99.20;21.23;;;;;;;16.38;73.27;100637.19;5050199;28;20500;-67
2021/10/09 05:28:46;;;;;;;98.53;16.90;;;;;;;16.34;73.70;100643.47;5045173;28;20127;-67
2021/10/09 05:31:25;;;;;;;120.50;18.98;;;;;;;16.25;73.75;100644.53;5050129;28;20459;-67
2021/10/09 05:33:53;;;;;;;76.00;16.77;;;;;;;16.07;74.51;100629.44;5035647;28;20122;-68
2021/10/09 05:36:22;;;;;;;109.35;18.65;;;;;;;16.21;73.99;100641.50;5049664;28;20467;-61
2021/10/09 05:38:49;;;;;;;117.03;19.73;;;;;;;16.26;73.98;100647.00;5028414;28;20085;-64
2021/10/09 05:41:17;;;;;;;102.20;18.48;;;;;;;16.21;74.46;100641.50;5045673;28;20092;-60
2021/10/09 05:43:45;;;;;;;74.00;16.40;;;;;;;16.24;74.25;100646.50;5051477;28;20136;-60
2021/10/09 05:46:13;;;;;;;100.63;21.25;;;;;;;16.16;74.48;100635.13;5051497;28;20076;-60
2021/10/09 05:48:41;;;;;;;80.43;18.55;;;;;;;16.21;74.45;100641.50;5045799;28;20063;-59
2021/10/09 06:01:49;;;;;;;86.80;24.17;;;;;;;16.38;73.83;100632.38;5050555;28;20073;-59
2021/10/09 07:00:59;;;;;;;49.27;17.07;;;;;;;15.44;76.79;100639.41;5038820;28;20140;-62
2021/10/09 07:03:27;;;;;;;86.00;18.23;;;;;;;15.55;76.91;100666.19;5023818;28;20507;-62
2021/10/09 07:05:54;;;;;;;77.60;18.53;;;;;;;15.50;76.74;100651.41;5047505;28;20049;-63
2021/10/09 07:08:21;;;;;;;89.00;21.60;;;;;;;15.77;75.89;100673.97;5044258;28;20472;-65
2021/10/09 07:10:49;;;;;;;66.37;19.67;;;;;;;15.85;75.49;100663.97;5041361;28;20045;-63
2021/10/09 07:13:17;;;;;;;101.50;20.58;;;;;;;16.10;74.89;100682.28;5041073;28;20499;-63
2021/10/09 07:15:45;;;;;;;110.47;19.65;;;;;;;16.15;74.62;100687.84;5038818;28;20061;-63
2021/10/09 07:18:13;;;;;;;76.32;20.65;;;;;;;16.27;74.41;100693.78;5039821;28;20083;-62
2021/10/09 07:20:41;;;;;;;86.55;18.48;;;;;;;16.34;74.06;100694.19;5041788;28;20053;-61
2021/10/09 07:23:11;;;;;;;83.55;17.40;;;;;;;15.86;74.18;100629.00;5043667;28;20049;-64
2021/10/09 07:25:39;;;;;;;66.43;17.95;;;;;;;16.43;73.83;100699.88;5051715;28;20389;-62
2021/10/09 07:28:06;;;;;;;68.05;19.15;;;;;;;16.21;74.43;100677.31;5046549;28;21021;-63
2021/10/09 07:30:33;;;;;;;56.63;17.65;;;;;;;16.29;74.36;100708.38;5048535;28;20076;-62
2021/10/09 07:33:00;;;;;;;62.45;19.55;;;;;;;16.29;74.37;100713.19;5050631;28;20553;-65
2021/10/09 07:35:27;;;;;;;74.78;20.25;;;;;;;16.33;74.20;100695.31;5035160;28;20124;-64
2021/10/09 07:37:53;;;;;;;57.40;18.42;;;;;;;16.56;74.04;100712.28;5048056;28;20132;-64
2021/10/09 07:40:20;;;;;;;65.93;20.45;;;;;;;16.67;73.95;100716.53;5041704;28;20049;-64
2021/10/09 07:42:47;;;;;;;59.95;18.15;;;;;;;16.65;74.02;100713.22;5042329;28;20132;-63
2021/10/09 07:45:15;;;;;;;64.63;18.70;;;;;;;16.61;73.51;100714.97;5046155;28;20128;-64
2021/10/09 07:47:42;;;;;;;70.53;20.13;;;;;;;16.61;73.50;100717.81;5048319;28;20136;-64
2021/10/09 07:50:10;;;;;;;62.33;20.90;;;;;;;16.58;73.56;100701.50;5047344;28;20558;-65
2021/10/09 07:52:38;;;;;;;74.93;21.58;;;;;;;16.84;73.32;100723.53;5046054;28;20528;-65
2021/10/09 07:55:05;;;;;;;75.32;19.65;;;;;;;16.93;73.00;100730.09;5033115;28;20049;-66
2021/10/09 07:57:32;;;;;;;72.15;20.40;;;;;;;16.99;73.36;100720.31;5047612;28;20136;-66
2021/10/09 07:59:59;;;;;;;70.07;22.40;;;;;;;17.09;72.97;100737.00;5035375;28;20198;-63
2021/10/09 08:02:26;;;;;;;64.25;20.63;;;;;;;17.12;73.00;100735.53;5042362;28;20136;-65
2021/10/09 08:04:53;;;;;;;73.32;19.13;;;;;;;17.13;72.56;100740.88;5049926;28;20069;-66
2021/10/09 08:07:21;;;;;;;65.10;19.63;;;;;;;17.25;72.89;100734.63;5035095;28;20115;-66
2021/10/09 08:09:47;;;;;;;74.15;18.55;;;;;;;17.58;72.77;100743.66;5044535;28;20079;-66
2021/10/09 08:12:14;;;;;;;58.65;17.42;;;;;;;17.75;72.06;100743.75;5045744;28;20155;-63
2021/10/09 08:14:41;;;;;;;60.65;19.25;;;;;;;17.79;71.49;100731.84;5045975;28;20509;-64
2021/10/09 08:17:08;;;;;;;64.53;20.15;;;;;;;17.79;71.94;100732.66;5048241;28;20137;-71
2021/10/09 08:19:35;;;;;;;53.97;19.08;;;;;;;17.87;71.65;100739.50;5050791;28;20045;-70
2021/10/09 08:22:06;;;;;;;58.33;19.95;;;;;;;18.06;71.35;100748.59;5043681;28;20096;-73
2021/10/09 08:27:21;;;;;;;51.30;18.90;;;;;;;18.05;70.81;100746.94;5035938;28;20133;-64
2021/10/09 08:40:37;;;;;;;46.45;18.27;;;;;;;18.39;70.19;100762.31;5048544;28;20112;-67
2021/10/09 08:43:04;;;;;;;53.63;19.17;;;;;;;18.32;70.05;100756.31;5053224;28;20131;-67
2021/10/09 08:45:31;;;;;;;58.90;21.15;;;;;;;18.42;70.55;100762.50;5028949;28;20045;-67
2021/10/09 08:47:58;;;;;;;43.55;18.15;;;;;;;18.51;70.42;100764.53;5050063;28;20470;-67
2021/10/09 08:50:26;;;;;;;56.80;20.02;;;;;;;18.54;70.07;100758.22;5051320;28;20056;-67
2021/10/09 08:53:11;;;;;;;43.05;17.85;;;;;;;18.70;69.71;100765.91;5042901;28;20070;-67
2021/10/09 08:55:45;;;;;;;35.40;17.85;;;;;;;18.78;69.50;100764.28;5034625;28;20497;-66
2021/10/09 08:58:32;;;;;;;52.75;20.00;;;;;;;18.95;69.22;100757.81;5034578;28;20056;-66
2021/10/09 09:37:01;;;;;;;32.97;15.23;;;;;;;26.75;54.64;100774.81;5053746;28;20045;-67
2021/10/09 09:39:41;;;;;;;28.80;14.05;;;;;;;27.04;54.42;100778.09;5052683;28;20045;-67
2021/10/09 09:42:09;;;;;;;26.20;14.38;;;;;;;26.98;53.42;100776.81;5053548;28;20092;-68
2021/10/09 09:44:52;;;;;;;33.28;15.50;;;;;;;27.11;53.24;100761.00;5026006;28;20045;-68
2021/10/09 09:47:31;;;;;;;31.38;15.05;;;;;;;27.24;52.01;100781.69;5052635;28;20120;-68
2021/10/09 09:49:58;;;;;;;30.85;16.05;;;;;;;27.52;51.58;100781.22;5052864;28;20128;-66
2021/10/09 09:52:25;;;;;;;25.02;13.88;;;;;;;27.90;50.16;100774.34;5046114;28;20129;-66
2021/10/09 09:54:53;;;;;;;28.90;16.80;;;;;;;28.01;49.37;100774.44;5045211;28;20091;-66
2021/10/09 09:57:21;;;;;;;33.80;16.50;;;;;;;28.04;48.97;100779.41;5052849;28;20133;-66
2021/10/09 09:59:54;;;;;;;32.58;16.08;;;;;;;28.22;48.60;100773.81;5050007;28;20550;-67
2021/10/09 10:02:23;;;;;;;31.90;17.08;;;;;;;28.28;47.69;100780.88;5041069;28;20080;-67
2021/10/09 10:04:51;;;;;;;39.78;16.05;;;;;;;28.09;48.12;100774.09;5052617;28;20045;-67
2021/10/09 10:07:18;;;;;;;32.42;16.77;;;;;;;28.35;47.53;100767.38;5035436;28;20094;-67
2021/10/09 10:09:45;;;;;;;31.52;16.42;;;;;;;28.93;46.83;100785.91;5052442;28;20087;-67
2021/10/09 10:12:13;;;;;;;29.10;14.75;;;;;;;29.16;45.49;100733.06;5052016;28;20128;-66
2021/10/09 10:14:42;;;;;;;35.97;16.45;;;;;;;29.61;44.48;100754.69;5051237;28;20111;-67
2021/10/09 10:17:09;;;;;;;30.25;15.90;;;;;;;29.35;45.18;100775.91;5050359;28;20076;-66
2021/10/09 10:19:51;;;;;;;30.63;16.08;;;;;;;29.54;44.77;100763.25;5048827;28;20136;-66
2021/10/09 10:22:39;;;;;;;29.83;16.65;;;;;;;29.70;45.00;100760.03;5043761;28;20127;-67
2021/10/09 10:25:21;;;;;;;35.05;16.15;;;;;;;30.05;44.17;100769.97;5052304;28;20103;-65
2021/10/09 10:28:07;;;;;;;26.83;14.93;;;;;;;30.42;43.74;100766.75;5053176;28;20120;-67
2021/10/09 10:30:39;;;;;;;32.03;16.42;;;;;;;30.87;42.04;100759.34;5050626;28;20114;-67
2021/10/09 10:33:06;;;;;;;22.98;14.60;;;;;;;31.10;41.98;100769.56;5052684;28;20135;-67
2021/10/09 10:35:33;;;;;;;28.88;15.50;;;;;;;31.16;41.30;100765.03;5051367;28;20124;-67
2021/10/09 10:38:08;;;;;;;29.35;15.80;;;;;;;30.95;40.86;100727.59;5052810;28;20051;-67
2021/10/09 10:40:54;;;;;;;29.65;15.80;;;;;;;30.80;41.39;100749.84;5041968;28;20485;-66
2021/10/09 10:43:46;;;;;;;31.13;14.90;;;;;;;30.38;41.88;100760.97;5036705;28;20140;-69
2021/10/09 10:46:30;;;;;;;33.47;16.27;;;;;;;30.35;42.10;100750.28;5032711;28;20124;-68
2021/10/09 10:56:59;;;;;;;27.65;15.43;;;;;;;31.14;39.89;100744.41;5050490;28;20129;-66
2021/10/09 10:59:54;;;;;;;24.08;14.27;;;;;;;31.25;40.43;100722.13;5052128;28;20136;-66
2021/10/09 11:02:37;;;;;;;21.63;13.82;;;;;;;31.83;39.86;100737.09;5021452;28;20133;-67
2021/10/09 11:05:13;;;;;;;24.55;14.65;;;;;;;32.84;38.16;100737.94;5051974;28;20045;-66
2021/10/09 11:07:45;;;;;;;24.77;14.45;;;;;;;33.95;36.13;100739.50;5051648;28;20049;-66
2021/10/09 11:10:17;;;;;;;28.35;14.25;;;;;;;34.39;35.10;100728.84;5033235;28;20092;-65
2021/10/09 11:12:48;;;;;;;22.27;13.93;;;;;;;34.56;34.95;100745.13;5048480;28;20071;-66
2021/10/09 11:15:20;;;;;;;28.35;14.45;;;;;;;34.91;34.10;100731.25;5043857;28;20045;-66
2021/10/09 11:17:58;;;;;;;24.80;14.73;;;;;;;35.11;34.25;100729.22;5036621;28;20081;-64
2021/10/09 11:20:34;;;;;;;26.27;13.75;;;;;;;35.31;33.22;100717.56;5041262;28;20143;-61
2021/10/09 11:23:09;;;;;;;23.13;12.73;;;;;;;35.71;32.83;100732.09;5041283;28;20685;-61
2021/10/09 11:25:42;;;;;;;22.45;14.07;;;;;;;36.11;32.26;100716.66;5037902;28;20452;-61
2021/10/09 11:28:24;;;;;;;28.48;12.77;;;;;;;36.32;32.17;100724.84;5049474;28;20098;-61
2021/10/09 11:30:53;;;;;;;23.50;14.23;;;;;;;36.63;31.14;100727.38;5043291;28;20053;-61
2021/10/09 11:33:27;;;;;;;24.85;13.23;;;;;;;36.78;31.23;100699.50;5042718;28;20124;-62
2021/10/09 11:35:55;;;;;;;23.60;13.45;;;;;;;36.99;30.25;100725.16;5029609;28;20140;-62
2021/10/09 11:38:29;;;;;;;23.35;13.35;;;;;;;37.32;30.22;100725.00;5044890;28;20041;-62
2021/10/09 11:41:09;;;;;;;24.55;12.85;;;;;;;37.53;29.63;100716.94;5040386;28;20057;-62
2021/10/09 11:55:04;;;;;;;26.80;12.20;;;;;;;39.09;27.27;100712.94;5048702;28;20144;-62
2021/10/09 11:57:23;;;;;;;22.03;12.10;;;;;;;39.42;26.67;100712.53;5047497;28;20540;-60
2021/10/09 11:59:50;;;;;;;22.30;12.43;;;;;;;39.34;26.41;100718.63;5044924;28;20049;-60
2021/10/09 12:02:35;;;;;;;24.50;12.68;;;;;;;39.31;27.02;100693.31;5044643;28;20132;-67
2021/10/09 12:05:02;;;;;;;23.45;12.13;;;;;;;39.72;25.88;100714.66;5051961;28;20543;-66
2021/10/09 12:07:29;;;;;;;24.83;12.07;;;;;;;39.93;25.66;100718.81;5039333;28;20124;-67
2021/10/09 12:10:03;;;;;;;24.48;11.23;;;;;;;40.39;25.10;100724.88;5036577;28;20568;-72
2021/10/09 12:12:35;;;;;;;24.27;12.13;;;;;;;40.24;24.95;100718.84;5024606;28;20049;-67
2021/10/09 12:15:02;;;;;;;22.80;12.40;;;;;;;40.42;24.81;100712.19;5042833;28;20053;-64
2021/10/09 12:17:38;;;;;;;30.05;11.75;;;;;;;40.36;24.81;100708.28;5044035;28;20552;-72
2021/10/09 12:20:07;;;;;;;23.90;12.02;;;;;;;39.84;24.90;100697.53;5046712;28;20137;-68
2021/10/09 12:22:42;;;;;;;21.15;12.05;;;;;;;40.25;24.72;100690.38;5049635;28;20485;-66
2021/10/09 12:25:22;;;;;;;27.17;13.18;;;;;;;40.51;24.30;100685.03;5049207;28;20072;-67
2021/10/09 12:28:02;;;;;;;21.17;10.55;;;;;;;40.78;23.90;100698.91;5038097;28;20079;-70
2021/10/09 12:30:43;;;;;;;32.85;12.07;;;;;;;41.05;24.21;100697.31;5040695;28;20107;-66
2021/10/09 12:33:10;;;;;;;24.88;11.65;;;;;;;41.51;23.25;100706.91;5036133;28;20084;-65
2021/10/09 12:35:38;;;;;;;26.08;12.13;;;;;;;41.37;23.27;100702.50;5049586;28;20135;-61
2021/10/09 12:38:08;;;;;;;26.00;12.90;;;;;;;41.28;23.48;100689.97;5045022;28;20049;-67
2021/10/09 12:40:50;;;;;;;25.33;12.93;;;;;;;41.59;23.19;100696.44;5051702;28;20048;-70
2021/10/09 12:43:19;;;;;;;27.67;12.68;;;;;;;41.64;22.56;100686.97;5051136;28;20080;-67
2021/10/09 12:45:47;;;;;;;25.58;12.00;;;;;;;41.19;23.13;100697.47;5039511;28;20124;-69
2021/10/09 12:48:17;;;;;;;21.35;12.20;;;;;;;40.31;24.09;100690.53;5046237;28;20550;-60
2021/10/09 12:50:44;;;;;;;23.77;12.13;;;;;;;39.52;24.74;100665.38;5044987;28;20115;-61
2021/10/09 12:53:11;;;;;;;32.28;13.93;;;;;;;38.32;25.75;100683.13;5049483;28;20140;-63
2021/10/09 12:55:40;;;;;;;26.20;13.05;;;;;;;37.04;27.26;100656.00;5050189;28;20076;-74
2021/10/09 12:58:09;;;;;;;31.08;14.40;;;;;;;35.99;28.17;100671.63;5051734;28;20085;-67
2021/10/09 13:00:38;;;;;;;33.35;13.63;;;;;;;34.86;29.48;100667.91;5027213;28;20053;-67
2021/10/09 13:03:06;;;;;;;24.05;12.35;;;;;;;33.55;31.03;100677.59;5046765;28;20128;-65
2021/10/09 13:05:33;;;;;;;24.13;12.02;;;;;;;32.56;31.86;100669.69;5044250;28;20056;-67
2021/10/09 13:08:04;;;;;;;26.55;13.00;;;;;;;31.50;33.07;100666.38;5046500;28;20041;-70
2021/10/09 13:10:40;;;;;;;27.02;13.27;;;;;;;30.75;34.13;100673.25;5041749;28;20053;-69
2021/10/09 13:13:07;;;;;;;31.25;13.85;;;;;;;29.98;35.32;100670.84;5042310;28;20057;-71
2021/10/09 13:15:34;;;;;;;27.17;13.75;;;;;;;29.43;36.64;100668.25;5010655;28;20057;-65
2021/10/09 13:18:01;;;;;;;30.83;13.82;;;;;;;29.12;36.96;100672.66;5049789;28;20065;-66
2021/10/09 13:20:32;;;;;;;31.85;13.82;;;;;;;28.56;37.36;100628.03;5049317;28;20119;-66
2021/10/09 13:23:00;;;;;;;27.00;12.65;;;;;;;28.51;37.94;100655.09;5047074;28;20411;-66
2021/10/09 13:25:32;;;;;;;34.25;12.60;;;;;;;28.20;39.03;100661.41;5047599;28;20048;-66
2021/10/09 13:27:59;;;;;;;24.98;12.52;;;;;;;27.87;39.52;100648.84;5040025;28;20084;-66
2021/10/09 13:30:27;;;;;;;32.83;13.40;;;;;;;27.45;40.11;100644.28;5026308;28;20488;-67
2021/10/09 13:32:54;;;;;;;24.38;11.88;;;;;;;26.99;40.60;100638.84;5052704;28;20116;-65
2021/10/09 13:35:20;;;;;;;28.70;13.73;;;;;;;26.64;41.15;100650.66;5039856;28;20132;-65
2021/10/09 13:37:48;;;;;;;31.80;12.55;;;;;;;26.31;42.07;100652.19;5034270;28;20136;-66
2021/10/09 13:40:16;;;;;;;33.85;15.32;;;;;;;26.14;42.78;100644.16;5030592;28;20570;-66
2021/10/09 13:42:42;;;;;;;29.65;16.23;;;;;;;25.86;43.15;100635.94;5047953;28;20560;-66
2021/10/09 13:45:09;;;;;;;29.08;14.90;;;;;;;25.57;43.56;100615.34;5040012;28;20130;-66
2021/10/09 13:47:36;;;;;;;27.70;13.82;;;;;;;25.48;44.21;100620.53;5040456;28;20092;-66
2021/10/09 13:50:04;;;;;;;31.80;14.52;;;;;;;25.56;44.24;100641.50;5025984;28;20113;-66
2021/10/09 13:52:30;;;;;;;34.33;14.45;;;;;;;25.39;44.87;100637.09;5052969;28;20045;-67